sensor_id;sensor_type;location;lat;lon;timestamp;temperature;humidity
26049;DHT22;13822;51.568;5.086;2023-02-15T00:01:04;4.70;99.90
26049;DHT22;13822;51.568;5.086;2023-02-15T00:06:12;4.60;99.90
26049;DHT22;13822;51.568;5.086;2023-02-15T00:11:17;4.60;99.90
26049;DHT22;13822;51.568;5.086;2023-02-15T00:16:42;4.60;99.90
26049;DHT22;13822;51.568;5.086;2023-02-15T00:21:54;4.50;99.90
26049;DHT22;13822;51.568;5.086;2023-02-15T00:26:58;4.50;99.90
26049;DHT22;13822;51.568;5.086;2023-02-15T00:32:10;4.50;99.90
26049;DHT22;13822;51.568;5.086;2023-02-15T00:37:19;4.40;99.90
26049;DHT22;13822;51.568;5.086;2023-02-15T00:42:35;4.40;99.90
26049;DHT22;13822;51.568;5.086;2023-02-15T00:47:41;4.40;99.90
26049;DHT22;13822;51.568;5.086;2023-02-15T00:52:53;4.30;99.90
26049;DHT22;13822;51.568;5.086;2023-02-15T00:58:08;4.20;99.90
26049;DHT22;13822;51.568;5.086;2023-02-15T01:03:16;4.20;99.90
26049;DHT22;13822;51.568;5.086;2023-02-15T01:21:43;4.00;99.90
26049;DHT22;13822;51.568;5.086;2023-02-15T01:27:30;4.00;99.90
26049;DHT22;13822;51.568;5.086;2023-02-15T01:33:03;3.90;99.90
26049;DHT22;13822;51.568;5.086;2023-02-15T01:38:09;3.90;99.90
26049;DHT22;13822;51.568;5.086;2023-02-15T01:43:27;3.80;99.90
26049;DHT22;13822;51.568;5.086;2023-02-15T01:49:58;3.80;99.90
26049;DHT22;13822;51.568;5.086;2023-02-15T01:55:23;3.70;99.90
26049;DHT22;13822;51.568;5.086;2023-02-15T02:00:32;3.70;99.90
26049;DHT22;13822;51.568;5.086;2023-02-15T02:05:39;3.70;99.90
26049;DHT22;13822;51.568;5.086;2023-02-15T06:11:56;2.60;99.90
26049;DHT22;13822;51.568;5.086;2023-02-15T06:16:58;2.60;99.90
26049;DHT22;13822;51.568;5.086;2023-02-15T06:22:00;2.60;99.90
26049;DHT22;13822;51.568;5.086;2023-02-15T06:27:02;2.50;99.90
26049;DHT22;13822;51.568;5.086;2023-02-15T06:32:04;2.50;99.90
26049;DHT22;13822;51.568;5.086;2023-02-15T06:37:06;2.50;99.90
26049;DHT22;13822;51.568;5.086;2023-02-15T06:42:09;2.40;99.90
26049;DHT22;13822;51.568;5.086;2023-02-15T06:47:11;2.40;99.90
26049;DHT22;13822;51.568;5.086;2023-02-15T06:52:13;2.40;99.90
26049;DHT22;13822;51.568;5.086;2023-02-15T06:57:15;2.40;99.90
26049;DHT22;13822;51.568;5.086;2023-02-15T07:02:17;2.40;99.90
26049;DHT22;13822;51.568;5.086;2023-02-15T07:07:19;2.40;99.90
26049;DHT22;13822;51.568;5.086;2023-02-15T07:12:21;2.40;99.90
26049;DHT22;13822;51.568;5.086;2023-02-15T07:17:41;2.40;99.90
26049;DHT22;13822;51.568;5.086;2023-02-15T07:22:44;2.40;99.90
26049;DHT22;13822;51.568;5.086;2023-02-15T07:27:46;2.40;99.90
26049;DHT22;13822;51.568;5.086;2023-02-15T07:32:48;2.40;99.90
26049;DHT22;13822;51.568;5.086;2023-02-15T07:38:08;2.40;99.90
26049;DHT22;13822;51.568;5.086;2023-02-15T07:43:11;2.40;99.90
26049;DHT22;13822;51.568;5.086;2023-02-15T07:48:13;2.40;99.90
26049;DHT22;13822;51.568;5.086;2023-02-15T07:53:15;2.40;99.90
26049;DHT22;13822;51.568;5.086;2023-02-15T07:58:17;2.40;99.90
26049;DHT22;13822;51.568;5.086;2023-02-15T08:03:19;2.40;99.90
26049;DHT22;13822;51.568;5.086;2023-02-15T08:08:21;2.50;99.90
26049;DHT22;13822;51.568;5.086;2023-02-15T08:13:32;2.60;99.90
26049;DHT22;13822;51.568;5.086;2023-02-15T08:18:34;2.70;99.90
26049;DHT22;13822;51.568;5.086;2023-02-15T08:23:35;2.80;99.90
26049;DHT22;13822;51.568;5.086;2023-02-15T08:28:38;2.90;99.90
26049;DHT22;13822;51.568;5.086;2023-02-15T08:33:41;3.00;99.90
26049;DHT22;13822;51.568;5.086;2023-02-15T08:38:44;3.00;99.90
26049;DHT22;13822;51.568;5.086;2023-02-15T08:43:47;3.20;99.90
26049;DHT22;13822;51.568;5.086;2023-02-15T08:48:52;3.30;99.90
26049;DHT22;13822;51.568;5.086;2023-02-15T08:53:55;3.30;99.90
26049;DHT22;13822;51.568;5.086;2023-02-15T08:58:58;3.40;99.90
26049;DHT22;13822;51.568;5.086;2023-02-15T09:04:01;3.50;99.90
26049;DHT22;13822;51.568;5.086;2023-02-15T09:09:06;3.60;99.90
26049;DHT22;13822;51.568;5.086;2023-02-15T09:14:10;3.60;99.90
26049;DHT22;13822;51.568;5.086;2023-02-15T09:19:15;3.70;99.90
26049;DHT22;13822;51.568;5.086;2023-02-15T09:24:18;3.90;99.90
26049;DHT22;13822;51.568;5.086;2023-02-15T09:29:20;4.00;99.90
26049;DHT22;13822;51.568;5.086;2023-02-15T09:34:24;4.10;99.90
26049;DHT22;13822;51.568;5.086;2023-02-15T09:39:26;4.20;99.90
26049;DHT22;13822;51.568;5.086;2023-02-15T10:01:10;4.90;99.90
26049;DHT22;13822;51.568;5.086;2023-02-15T10:27:49;6.00;99.90
26049;DHT22;13822;51.568;5.086;2023-02-15T10:38:13;6.50;99.90
26049;DHT22;13822;51.568;5.086;2023-02-15T10:43:40;6.70;99.90
26049;DHT22;13822;51.568;5.086;2023-02-15T11:00:02;7.50;99.90
26049;DHT22;13822;51.568;5.086;2023-02-15T11:05:18;7.80;99.90
26049;DHT22;13822;51.568;5.086;2023-02-15T11:21:39;8.60;99.90
26049;DHT22;13822;51.568;5.086;2023-02-15T11:26:53;8.90;99.90
26049;DHT22;13822;51.568;5.086;2023-02-15T11:31:59;9.10;99.90
26049;DHT22;13822;51.568;5.086;2023-02-15T11:37:08;9.20;99.90
26049;DHT22;13822;51.568;5.086;2023-02-15T11:42:13;9.40;99.90
26049;DHT22;13822;51.568;5.086;2023-02-15T11:47:16;9.60;99.90
26049;DHT22;13822;51.568;5.086;2023-02-15T11:52:18;9.80;99.90
26049;DHT22;13822;51.568;5.086;2023-02-15T11:57:26;9.90;99.90
26049;DHT22;13822;51.568;5.086;2023-02-15T12:02:33;10.10;99.90
26049;DHT22;13822;51.568;5.086;2023-02-15T12:07:40;10.20;99.90
26049;DHT22;13822;51.568;5.086;2023-02-15T12:12:45;10.40;99.90
26049;DHT22;13822;51.568;5.086;2023-02-15T12:17:51;10.50;99.90
26049;DHT22;13822;51.568;5.086;2023-02-15T12:22:59;10.60;99.90
26049;DHT22;13822;51.568;5.086;2023-02-15T12:28:15;10.80;99.90
26049;DHT22;13822;51.568;5.086;2023-02-15T12:33:28;10.90;99.90
26049;DHT22;13822;51.568;5.086;2023-02-15T12:38:32;11.10;99.90
26049;DHT22;13822;51.568;5.086;2023-02-15T12:43:36;11.20;99.90
26049;DHT22;13822;51.568;5.086;2023-02-15T12:48:42;11.40;99.90
26049;DHT22;13822;51.568;5.086;2023-02-15T12:53:44;11.50;99.90
26049;DHT22;13822;51.568;5.086;2023-02-15T12:58:48;11.70;99.90
26049;DHT22;13822;51.568;5.086;2023-02-15T13:04:08;11.70;99.90
26049;DHT22;13822;51.568;5.086;2023-02-15T13:14:36;12.00;99.90
26049;DHT22;13822;51.568;5.086;2023-02-15T13:19:40;12.10;99.90
26049;DHT22;13822;51.568;5.086;2023-02-15T13:25:01;12.20;99.90
26049;DHT22;13822;51.568;5.086;2023-02-15T13:30:18;12.30;99.90
26049;DHT22;13822;51.568;5.086;2023-02-15T13:35:21;12.40;99.90
26049;DHT22;13822;51.568;5.086;2023-02-15T13:40:25;12.50;99.90
26049;DHT22;13822;51.568;5.086;2023-02-15T13:50:50;12.60;99.90
26049;DHT22;13822;51.568;5.086;2023-02-15T13:56:06;12.80;99.90
26049;DHT22;13822;51.568;5.086;2023-02-15T14:23:10;13.00;99.90
26049;DHT22;13822;51.568;5.086;2023-02-15T14:33:47;13.00;99.90
26049;DHT22;13822;51.568;5.086;2023-02-15T14:39:05;13.00;99.90
26049;DHT22;13822;51.568;5.086;2023-02-15T14:44:32;13.00;99.90
26049;DHT22;13822;51.568;5.086;2023-02-15T14:49:39;12.90;99.90
26049;DHT22;13822;51.568;5.086;2023-02-15T15:00:33;12.90;99.90
26049;DHT22;13822;51.568;5.086;2023-02-15T15:05:46;12.90;99.90
26049;DHT22;13822;51.568;5.086;2023-02-15T15:10:50;12.90;99.90
26049;DHT22;13822;51.568;5.086;2023-02-15T15:15:52;12.90;99.90
26049;DHT22;13822;51.568;5.086;2023-02-15T15:20:54;12.80;99.90
26049;DHT22;13822;51.568;5.086;2023-02-15T15:25:57;12.80;99.90
26049;DHT22;13822;51.568;5.086;2023-02-15T15:47:26;12.50;99.90
26049;DHT22;13822;51.568;5.086;2023-02-15T15:52:54;12.50;99.90
26049;DHT22;13822;51.568;5.086;2023-02-15T15:58:02;12.40;99.90
26049;DHT22;13822;51.568;5.086;2023-02-15T16:03:13;12.40;99.90
26049;DHT22;13822;51.568;5.086;2023-02-15T16:08:25;12.30;99.90
26049;DHT22;13822;51.568;5.086;2023-02-15T16:13:28;12.30;99.90
26049;DHT22;13822;51.568;5.086;2023-02-15T16:18:30;12.30;99.90
26049;DHT22;13822;51.568;5.086;2023-02-15T16:28:49;12.10;99.90
26049;DHT22;13822;51.568;5.086;2023-02-15T16:33:55;12.00;99.90
26049;DHT22;13822;51.568;5.086;2023-02-15T16:44:11;11.90;99.90
26049;DHT22;13822;51.568;5.086;2023-02-15T16:49:21;11.80;99.90
26049;DHT22;13822;51.568;5.086;2023-02-15T16:54:25;11.70;99.90
26049;DHT22;13822;51.568;5.086;2023-02-15T16:59:36;11.60;99.90
26049;DHT22;13822;51.568;5.086;2023-02-15T17:04:41;11.40;99.90
26049;DHT22;13822;51.568;5.086;2023-02-15T17:09:53;11.30;99.90
26049;DHT22;13822;51.568;5.086;2023-02-15T17:14:56;11.20;99.90
26049;DHT22;13822;51.568;5.086;2023-02-15T17:19:58;11.00;99.90
26049;DHT22;13822;51.568;5.086;2023-02-15T17:25:01;10.80;99.90
26049;DHT22;13822;51.568;5.086;2023-02-15T17:30:16;10.80;99.90
26049;DHT22;13822;51.568;5.086;2023-02-15T17:35:23;10.70;99.90
26049;DHT22;13822;51.568;5.086;2023-02-15T17:40:31;10.60;99.90
26049;DHT22;13822;51.568;5.086;2023-02-15T17:45:35;10.50;99.90
26049;DHT22;13822;51.568;5.086;2023-02-15T17:50:42;10.40;99.90
26049;DHT22;13822;51.568;5.086;2023-02-15T17:55:44;10.30;99.90
26049;DHT22;13822;51.568;5.086;2023-02-15T18:00:56;10.30;99.90
26049;DHT22;13822;51.568;5.086;2023-02-15T18:06:20;10.20;99.90
26049;DHT22;13822;51.568;5.086;2023-02-15T18:11:41;10.10;99.90
26049;DHT22;13822;51.568;5.086;2023-02-15T18:16:49;10.00;99.90
26049;DHT22;13822;51.568;5.086;2023-02-15T18:21:51;9.90;99.90
26049;DHT22;13822;51.568;5.086;2023-02-15T18:26:54;9.80;99.90
26049;DHT22;13822;51.568;5.086;2023-02-15T18:31:56;9.70;99.90
26049;DHT22;13822;51.568;5.086;2023-02-15T18:37:00;9.70;99.90
26049;DHT22;13822;51.568;5.086;2023-02-15T18:42:03;9.60;99.90
26049;DHT22;13822;51.568;5.086;2023-02-15T18:47:05;9.50;99.90
26049;DHT22;13822;51.568;5.086;2023-02-15T18:52:12;9.50;99.90
26049;DHT22;13822;51.568;5.086;2023-02-15T18:57:16;9.40;99.90
26049;DHT22;13822;51.568;5.086;2023-02-15T19:02:18;9.40;99.90
26049;DHT22;13822;51.568;5.086;2023-02-15T19:07:22;9.30;99.90
26049;DHT22;13822;51.568;5.086;2023-02-15T19:12:27;9.30;99.90
26049;DHT22;13822;51.568;5.086;2023-02-15T19:17:29;9.30;99.90
26049;DHT22;13822;51.568;5.086;2023-02-15T19:22:31;9.20;99.90
26049;DHT22;13822;51.568;5.086;2023-02-15T19:27:35;9.20;99.90
26049;DHT22;13822;51.568;5.086;2023-02-15T19:32:37;9.20;99.90
26049;DHT22;13822;51.568;5.086;2023-02-15T19:37:40;9.10;99.90
26049;DHT22;13822;51.568;5.086;2023-02-15T19:42:43;9.00;99.90
26049;DHT22;13822;51.568;5.086;2023-02-15T19:47:45;9.00;99.90
26049;DHT22;13822;51.568;5.086;2023-02-15T19:52:48;8.90;99.90
26049;DHT22;13822;51.568;5.086;2023-02-15T19:57:51;8.80;99.90
26049;DHT22;13822;51.568;5.086;2023-02-15T20:02:54;8.70;99.90
26049;DHT22;13822;51.568;5.086;2023-02-15T20:07:57;8.60;99.90
26049;DHT22;13822;51.568;5.086;2023-02-15T20:12:59;8.60;99.90
26049;DHT22;13822;51.568;5.086;2023-02-15T20:18:02;8.60;99.90
26049;DHT22;13822;51.568;5.086;2023-02-15T20:23:04;8.60;99.90
26049;DHT22;13822;51.568;5.086;2023-02-15T20:28:10;8.50;99.90
26049;DHT22;13822;51.568;5.086;2023-02-15T20:33:19;8.40;99.90
26049;DHT22;13822;51.568;5.086;2023-02-15T20:43:26;8.40;99.90
26049;DHT22;13822;51.568;5.086;2023-02-15T20:48:31;8.40;99.90
